Time;durP1;ratioP1;P1;durP2;ratioP2;P2;SDS_P1;SDS_P2;PMS_P1;PMS_P2;Temp;Humidity;BMP_temperature;BMP_pressure;BME280_temperature;BME280_humidity;BME280_pressure;Samples;Min_cycle;Max_cycle;Signal;HPM_P1;HPM_P2
2024/02/29 00:00:09;;;;;;;34.80;21.40;;;8.30;99.90;;;;;;6270365;22;36642;-78
2024/02/29 00:02:35;;;;;;;33.77;22.13;;;8.30;99.90;;;;;;6268906;22;38085;-78
2024/02/29 00:05:01;;;;;;;31.70;22.33;;;8.30;99.90;;;;;;6269442;22;37561;-78
2024/02/29 00:07:28;;;;;;;32.83;22.67;;;8.30;99.90;;;;;;6266519;22;37631;-78
2024/02/29 00:09:54;;;;;;;34.47;21.63;;;8.30;99.90;;;;;;6271607;22;36708;-78
2024/02/29 00:12:20;;;;;;;31.57;20.80;;;8.20;99.90;;;;;;6268440;22;37341;-78
2024/02/29 00:14:46;;;;;;;36.67;20.87;;;8.20;99.90;;;;;;6268151;22;38700;-77
2024/02/29 00:17:12;;;;;;;42.23;23.17;;;8.20;99.90;;;;;;6270525;22;38748;-78
2024/02/29 00:19:38;;;;;;;35.53;21.43;;;8.20;99.90;;;;;;6274892;22;37600;-78
2024/02/29 00:22:05;;;;;;;34.57;22.50;;;8.20;99.90;;;;;;6274366;22;39119;-78
2024/02/29 00:24:31;;;;;;;37.60;21.90;;;8.20;99.90;;;;;;6273995;22;39479;-78
2024/02/29 00:26:57;;;;;;;39.97;23.00;;;8.10;99.90;;;;;;6275995;22;38624;-78
2024/02/29 00:29:26;;;;;;;32.47;21.17;;;8.10;99.90;;;;;;6275905;22;37654;-78
2024/02/29 00:31:53;;;;;;;39.93;21.70;;;8.20;99.90;;;;;;6275019;22;38682;-77
2024/02/29 00:34:19;;;;;;;38.43;22.30;;;8.10;99.90;;;;;;6272984;22;40494;-78
2024/02/29 00:36:45;;;;;;;32.87;21.00;;;8.10;99.90;;;;;;6273542;22;37474;-78
2024/02/29 00:39:12;;;;;;;37.60;21.43;;;8.10;99.90;;;;;;6270616;22;36599;-78
2024/02/29 00:41:38;;;;;;;39.17;21.70;;;8.10;99.90;;;;;;6274300;22;40498;-78
2024/02/29 00:44:04;;;;;;;31.83;19.60;;;8.10;99.90;;;;;;6283134;22;38523;-78
2024/02/29 00:46:30;;;;;;;29.57;19.77;;;8.20;99.90;;;;;;6280808;22;38204;-78
2024/02/29 00:48:56;;;;;;;31.00;19.30;;;8.20;99.90;;;;;;6278352;22;39259;-78
2024/02/29 00:51:23;;;;;;;35.33;20.90;;;8.20;99.90;;;;;;6277839;22;39759;-78
2024/02/29 00:53:49;;;;;;;31.77;19.50;;;8.20;99.90;;;;;;6276740;22;39044;-78
2024/02/29 00:56:15;;;;;;;31.37;18.70;;;8.20;99.90;;;;;;6271436;22;36780;-78
2024/02/29 00:58:41;;;;;;;30.53;19.70;;;8.30;99.90;;;;;;6273397;22;37391;-78
2024/02/29 01:01:07;;;;;;;30.83;18.40;;;8.30;99.90;;;;;;6271507;22;39845;-78
2024/02/29 01:03:34;;;;;;;30.93;18.90;;;8.30;99.90;;;;;;6270388;22;37172;-78
2024/02/29 01:06:00;;;;;;;30.20;18.90;;;8.30;99.90;;;;;;6271317;22;40772;-78
2024/02/29 01:08:27;;;;;;;30.07;17.37;;;8.30;99.90;;;;;;6270645;22;46591;-78
2024/02/29 01:10:53;;;;;;;28.73;17.27;;;8.30;99.90;;;;;;6274030;22;39108;-78
2024/02/29 01:13:19;;;;;;;24.73;16.90;;;8.40;99.90;;;;;;6270945;22;39233;-78
2024/02/29 01:15:46;;;;;;;29.83;16.63;;;8.40;99.90;;;;;;6275935;22;37981;-78
2024/02/29 01:18:12;;;;;;;27.90;16.87;;;8.40;99.90;;;;;;6274531;22;37253;-78
2024/02/29 01:20:38;;;;;;;27.90;16.30;;;8.40;99.90;;;;;;6267933;22;37754;-78
2024/02/29 01:23:04;;;;;;;26.40;16.47;;;8.40;99.90;;;;;;6273928;22;39399;-78
2024/02/29 01:25:31;;;;;;;29.00;17.37;;;8.40;99.90;;;;;;6275329;22;38085;-79
2024/02/29 01:27:57;;;;;;;31.33;17.77;;;8.40;99.90;;;;;;6277772;22;37583;-78
2024/02/29 01:30:23;;;;;;;26.03;17.53;;;8.40;99.90;;;;;;6281012;22;39028;-78
2024/02/29 01:32:50;;;;;;;29.97;18.07;;;8.30;99.90;;;;;;6278205;22;39039;-79
2024/02/29 01:35:16;;;;;;;31.43;18.70;;;8.30;99.90;;;;;;6275619;22;38610;-78
2024/02/29 01:37:42;;;;;;;32.90;18.90;;;8.30;99.90;;;;;;6272567;22;36711;-78
2024/02/29 01:40:09;;;;;;;33.43;18.70;;;8.30;99.90;;;;;;6270531;22;38044;-79
2024/02/29 01:42:35;;;;;;;31.87;19.07;;;8.30;99.90;;;;;;6272543;22;38973;-78
2024/02/29 01:45:01;;;;;;;37.30;21.40;;;8.20;99.90;;;;;;6271305;22;36889;-77
2024/02/29 01:47:27;;;;;;;33.03;21.60;;;8.20;99.90;;;;;;6273804;22;38428;-78
2024/02/29 01:50:03;;;;;;;38.50;22.50;;;8.10;99.90;;;;;;6272784;22;37973;-78
2024/02/29 01:52:33;;;;;;;41.70;22.00;;;8.10;99.90;;;;;;6272993;22;40848;-78
2024/02/29 01:54:59;;;;;;;39.07;22.13;;;8.10;99.90;;;;;;6272169;22;39301;-79
2024/02/29 01:57:26;;;;;;;40.73;23.57;;;8.10;99.90;;;;;;6270622;22;38427;-78
2024/02/29 01:59:53;;;;;;;40.10;23.73;;;8.00;99.90;;;;;;6276035;22;38745;-77
2024/02/29 02:02:19;;;;;;;47.50;25.43;;;8.00;99.90;;;;;;6216661;22;37516;-77
2024/02/29 02:04:45;;;;;;;40.70;25.43;;;8.00;99.90;;;;;;6272449;22;40046;-78
2024/02/29 02:07:11;;;;;;;48.83;26.37;;;8.00;99.90;;;;;;6277547;22;37850;-76
2024/02/29 02:09:41;;;;;;;47.77;24.73;;;8.00;99.90;;;;;;6278767;22;38701;-77
2024/02/29 02:12:11;;;;;;;50.07;26.07;;;8.00;99.90;;;;;;6273808;22;38939;-77
2024/02/29 02:14:39;;;;;;;45.03;25.87;;;8.00;99.90;;;;;;6275790;22;39296;-78
2024/02/29 02:17:06;;;;;;;50.07;28.50;;;8.00;99.90;;;;;;6275686;22;37744;-77
2024/02/29 02:19:32;;;;;;;46.57;27.27;;;8.00;99.90;;;;;;6275137;22;40673;-77
2024/02/29 02:21:58;;;;;;;47.70;26.53;;;8.00;99.90;;;;;;6275282;22;38921;-77
2024/02/29 02:24:25;;;;;;;45.90;26.97;;;8.00;99.90;;;;;;6274721;22;39251;-79
2024/02/29 02:26:51;;;;;;;46.17;27.27;;;8.00;99.90;;;;;;6277480;22;37400;-77
2024/02/29 02:29:17;;;;;;;44.33;27.60;;;8.00;99.90;;;;;;6274733;22;38610;-77
2024/02/29 02:31:44;;;;;;;51.27;28.83;;;8.00;99.90;;;;;;6274304;22;38693;-77
2024/02/29 02:34:10;;;;;;;48.13;28.73;;;8.10;99.90;;;;;;6273812;22;37620;-76
2024/02/29 02:36:36;;;;;;;47.43;28.57;;;8.10;99.90;;;;;;6273450;22;37853;-77
2024/02/29 02:39:02;;;;;;;47.80;29.63;;;8.00;99.90;;;;;;6276830;22;39021;-77
2024/02/29 02:41:28;;;;;;;47.57;29.17;;;8.00;99.90;;;;;;6277646;22;38372;-76
2024/02/29 02:43:54;;;;;;;51.57;30.50;;;8.00;99.90;;;;;;6274762;22;39055;-76
2024/02/29 02:46:20;;;;;;;56.57;30.07;;;8.00;99.90;;;;;;6275271;22;37689;-76
2024/02/29 02:48:46;;;;;;;49.27;31.07;;;8.00;99.90;;;;;;6274575;22;40051;-76
2024/02/29 02:51:12;;;;;;;49.80;28.87;;;8.10;99.90;;;;;;6275530;22;39061;-76
2024/02/29 02:53:39;;;;;;;47.53;29.33;;;8.10;99.90;;;;;;6277569;22;38296;-77
2024/02/29 02:56:05;;;;;;;44.30;29.17;;;8.10;99.90;;;;;;6276931;22;37563;-77
2024/02/29 02:58:31;;;;;;;45.83;29.63;;;8.10;99.90;;;;;;6279754;22;39111;-76
2024/02/29 03:00:57;;;;;;;49.27;29.13;;;8.10;99.90;;;;;;6276417;22;38989;-77
2024/02/29 03:03:23;;;;;;;45.13;28.57;;;8.20;99.90;;;;;;6272848;22;39673;-76
2024/02/29 03:05:50;;;;;;;45.17;27.33;;;8.20;99.90;;;;;;6275388;22;37850;-77
2024/02/29 03:08:16;;;;;;;47.87;27.97;;;8.20;99.90;;;;;;6273174;22;39052;-78
2024/02/29 03:10:42;;;;;;;43.87;27.17;;;8.20;99.90;;;;;;6277455;22;38514;-75
2024/02/29 03:13:08;;;;;;;45.70;27.13;;;8.30;99.90;;;;;;6275010;22;38427;-76
2024/02/29 03:15:34;;;;;;;44.60;27.73;;;8.30;99.90;;;;;;6275715;22;37435;-76
2024/02/29 03:18:00;;;;;;;45.77;27.80;;;8.30;99.90;;;;;;6275372;22;39808;-76
2024/02/29 03:20:26;;;;;;;47.67;28.40;;;8.30;99.90;;;;;;6272753;22;47313;-77
2024/02/29 03:22:53;;;;;;;46.77;27.93;;;8.30;99.90;;;;;;6275654;22;38928;-76
2024/02/29 03:25:19;;;;;;;42.10;27.00;;;8.30;99.90;;;;;;6273821;22;38205;-76
2024/02/29 03:27:46;;;;;;;38.07;27.27;;;8.30;99.90;;;;;;6275923;22;39035;-77
2024/02/29 03:30:12;;;;;;;40.67;26.33;;;8.30;99.90;;;;;;6275568;22;40215;-77
2024/02/29 03:32:38;;;;;;;46.47;27.57;;;8.30;99.90;;;;;;6273102;22;39497;-75
2024/02/29 03:35:05;;;;;;;42.50;27.37;;;8.30;99.90;;;;;;6274393;22;37820;-76
2024/02/29 03:37:31;;;;;;;44.93;28.00;;;8.30;99.90;;;;;;6276072;22;48955;-77
2024/02/29 03:39:57;;;;;;;41.47;27.23;;;8.30;99.90;;;;;;6274390;22;39231;-76
2024/02/29 03:42:23;;;;;;;43.63;26.67;;;8.30;99.90;;;;;;6273535;22;38297;-76
2024/02/29 03:44:49;;;;;;;40.63;25.33;;;8.30;99.90;;;;;;6272495;22;39309;-76
2024/02/29 03:47:16;;;;;;;39.33;25.17;;;8.40;99.90;;;;;;6273967;22;40108;-76
2024/02/29 03:49:42;;;;;;;38.13;25.73;;;8.30;99.90;;;;;;6272729;22;38416;-76
2024/02/29 03:52:08;;;;;;;35.00;23.77;;;8.30;99.90;;;;;;6270858;22;39175;-76
2024/02/29 03:54:34;;;;;;;38.17;24.17;;;8.40;99.90;;;;;;6273316;22;37168;-76
2024/02/29 03:57:00;;;;;;;34.63;23.33;;;8.40;99.90;;;;;;6272920;22;38921;-76
2024/02/29 03:59:26;;;;;;;35.27;22.60;;;8.40;99.90;;;;;;6268249;22;39793;-76
2024/02/29 04:01:53;;;;;;;36.73;23.67;;;8.40;99.90;;;;;;6272077;22;38225;-76
2024/02/29 04:04:20;;;;;;;32.77;22.33;;;8.40;99.90;;;;;;6272299;22;38487;-76
2024/02/29 04:06:46;;;;;;;35.47;23.10;;;8.40;99.90;;;;;;6270720;22;39611;-76
2024/02/29 04:09:13;;;;;;;39.70;22.17;;;8.40;99.90;;;;;;6272938;22;38701;-76
2024/02/29 04:11:39;;;;;;;31.80;21.40;;;8.40;99.90;;;;;;6276546;22;39154;-76
2024/02/29 04:14:05;;;;;;;29.50;21.73;;;8.50;99.90;;;;;;6275234;22;37407;-76
2024/02/29 04:16:35;;;;;;;31.37;22.13;;;8.50;99.90;;;;;;6278277;22;38526;-76
2024/02/29 04:19:02;;;;;;;28.93;20.27;;;8.50;99.90;;;;;;6274188;22;39564;-75
2024/02/29 04:21:29;;;;;;;30.67;20.20;;;8.50;99.90;;;;;;6270720;22;38871;-76
2024/02/29 04:23:55;;;;;;;31.63;20.07;;;8.50;99.90;;;;;;6271862;22;37619;-76
2024/02/29 04:26:24;;;;;;;30.67;20.47;;;8.50;99.90;;;;;;6271067;22;40403;-76
2024/02/29 04:28:50;;;;;;;30.93;20.50;;;8.50;99.90;;;;;;6271240;22;38942;-75
2024/02/29 04:31:17;;;;;;;29.57;21.10;;;8.50;99.90;;;;;;6271012;22;38447;-76
2024/02/29 04:33:44;;;;;;;33.17;19.57;;;8.50;99.90;;;;;;6271887;22;37989;-76
2024/02/29 04:36:10;;;;;;;26.50;19.47;;;8.50;99.90;;;;;;6271182;22;39758;-75
2024/02/29 04:38:36;;;;;;;29.33;20.57;;;8.50;99.90;;;;;;6276027;22;38778;-77
2024/02/29 04:41:03;;;;;;;27.63;19.30;;;8.50;99.90;;;;;;6275312;22;39879;-76
2024/02/29 04:43:29;;;;;;;25.13;18.57;;;8.50;99.90;;;;;;6274957;22;37532;-76
2024/02/29 04:45:55;;;;;;;24.07;17.97;;;8.50;99.90;;;;;;6276803;22;38606;-76
2024/02/29 04:48:22;;;;;;;25.90;18.33;;;8.50;99.90;;;;;;6275845;22;37646;-76
2024/02/29 04:50:48;;;;;;;26.20;17.57;;;8.50;99.90;;;;;;6274581;22;37796;-76
2024/02/29 04:53:15;;;;;;;26.80;18.30;;;8.50;99.90;;;;;;6277546;22;37659;-76
2024/02/29 04:55:41;;;;;;;25.03;18.27;;;8.50;99.90;;;;;;6274229;22;40676;-77
2024/02/29 04:58:07;;;;;;;26.23;17.97;;;8.50;99.90;;;;;;6274559;22;39518;-77
2024/02/29 05:00:34;;;;;;;24.93;17.57;;;8.60;99.90;;;;;;6274645;22;39772;-77
2024/02/29 05:03:00;;;;;;;26.97;17.33;;;8.50;99.90;;;;;;6275325;22;37662;-76
2024/02/29 05:05:27;;;;;;;24.47;17.40;;;8.60;99.90;;;;;;6273036;22;39398;-76
2024/02/29 05:07:54;;;;;;;29.63;17.73;;;8.60;99.90;;;;;;6274257;22;37360;-77
2024/02/29 05:10:21;;;;;;;26.03;18.07;;;8.60;99.90;;;;;;6271928;22;39821;-76
2024/02/29 05:12:50;;;;;;;24.33;16.77;;;8.60;99.90;;;;;;6277170;22;38314;-76
2024/02/29 05:15:19;;;;;;;23.80;17.37;;;8.60;99.90;;;;;;6271988;22;39315;-76
2024/02/29 05:17:48;;;;;;;25.77;18.17;;;8.60;99.90;;;;;;6274633;22;39794;-76
2024/02/29 05:20:15;;;;;;;29.53;19.70;;;8.60;99.90;;;;;;6272598;22;38672;-76
2024/02/29 05:22:42;;;;;;;31.83;20.33;;;8.60;99.90;;;;;;6272623;22;39110;-75
2024/02/29 05:25:11;;;;;;;31.70;19.87;;;8.50;99.90;;;;;;6272022;22;39309;-75
2024/02/29 05:27:38;;;;;;;28.47;19.10;;;8.50;99.90;;;;;;6273586;22;38198;-76
2024/02/29 05:30:05;;;;;;;29.07;21.10;;;8.50;99.90;;;;;;6272588;22;38212;-76
2024/02/29 05:32:31;;;;;;;30.07;21.60;;;8.50;99.90;;;;;;6273156;22;37336;-76
2024/02/29 05:34:57;;;;;;;29.17;20.50;;;8.50;99.90;;;;;;6273927;22;38717;-75
2024/02/29 05:37:23;;;;;;;31.43;21.33;;;8.50;99.90;;;;;;6271314;22;38925;-75
2024/02/29 05:39:50;;;;;;;36.33;21.90;;;8.50;99.90;;;;;;6271813;22;36817;-75
2024/02/29 05:42:16;;;;;;;30.67;21.03;;;8.50;99.90;;;;;;6273543;22;37808;-77
2024/02/29 05:44:42;;;;;;;31.73;22.30;;;8.50;99.90;;;;;;6273877;22;38337;-77
2024/02/29 05:47:09;;;;;;;34.90;22.07;;;8.50;99.90;;;;;;6269909;22;37293;-76
2024/02/29 05:49:35;;;;;;;30.77;22.80;;;8.50;99.90;;;;;;6269641;22;37015;-76
2024/02/29 05:52:01;;;;;;;36.57;22.77;;;8.50;99.90;;;;;;6273892;22;37210;-76
2024/02/29 05:54:27;;;;;;;38.63;23.27;;;8.50;99.90;;;;;;6270716;22;47104;-77
2024/02/29 05:56:55;;;;;;;35.50;23.33;;;8.50;99.90;;;;;;6273898;22;38243;-75
2024/02/29 05:59:21;;;;;;;38.20;23.53;;;8.50;99.90;;;;;;6276611;22;38837;-76
2024/02/29 06:01:48;;;;;;;30.20;21.17;;;8.50;99.90;;;;;;6274815;22;36257;-77
2024/02/29 06:04:14;;;;;;;32.30;20.97;;;8.50;99.90;;;;;;6277820;22;39689;-75
2024/02/29 06:06:40;;;;;;;32.60;21.90;;;8.50;99.90;;;;;;6270800;22;38406;-76
2024/02/29 06:09:06;;;;;;;29.77;22.33;;;8.50;99.90;;;;;;6270002;22;38415;-76
2024/02/29 06:11:32;;;;;;;28.90;22.20;;;8.50;99.90;;;;;;6272052;22;38640;-76
2024/02/29 06:14:02;;;;;;;36.73;22.87;;;8.50;99.90;;;;;;6269463;22;37613;-76
2024/02/29 06:16:28;;;;;;;34.53;22.97;;;8.40;99.90;;;;;;6268364;22;47160;-77
2024/02/29 06:18:55;;;;;;;31.37;21.67;;;8.50;99.90;;;;;;6268607;22;37274;-76
2024/02/29 06:21:21;;;;;;;37.10;23.33;;;8.50;99.90;;;;;;6268795;22;37591;-76
2024/02/29 06:23:47;;;;;;;33.90;21.40;;;8.40;99.90;;;;;;6272189;22;38566;-76
2024/02/29 06:26:14;;;;;;;34.23;22.23;;;8.40;99.90;;;;;;6271876;22;38640;-77
2024/02/29 06:28:41;;;;;;;34.20;22.53;;;8.40;99.90;;;;;;6274813;22;37887;-76
2024/02/29 06:31:10;;;;;;;35.80;23.00;;;8.40;99.90;;;;;;6270780;22;36489;-77
2024/02/29 06:33:36;;;;;;;40.33;24.43;;;8.40;99.90;;;;;;6270074;22;39471;-77
2024/02/29 06:36:06;;;;;;;34.60;23.73;;;8.40;99.90;;;;;;6271610;22;37455;-77
2024/02/29 06:38:32;;;;;;;31.87;23.97;;;8.40;99.90;;;;;;6275762;22;39248;-77
2024/02/29 06:40:58;;;;;;;34.80;23.93;;;8.40;99.90;;;;;;6272326;22;36601;-77
2024/02/29 06:43:24;;;;;;;37.27;24.63;;;8.40;99.90;;;;;;6272728;22;38078;-77
2024/02/29 06:45:51;;;;;;;37.70;23.57;;;8.40;99.90;;;;;;6271538;22;37823;-76
2024/02/29 06:48:18;;;;;;;33.90;23.07;;;8.40;99.90;;;;;;6272447;22;37606;-77
2024/02/29 06:50:45;;;;;;;37.00;24.07;;;8.40;99.90;;;;;;6273488;22;38196;-77
2024/02/29 06:53:12;;;;;;;34.63;25.23;;;8.40;99.90;;;;;;6271394;22;38928;-76
2024/02/29 06:55:38;;;;;;;37.20;24.93;;;8.50;99.90;;;;;;6272136;22;38400;-76
2024/02/29 06:58:05;;;;;;;32.63;24.53;;;8.50;99.90;;;;;;6271905;22;37006;-77
2024/02/29 07:00:32;;;;;;;32.33;24.77;;;8.50;99.90;;;;;;6273948;22;37138;-77
2024/02/29 07:03:00;;;;;;;36.80;26.67;;;8.50;99.90;;;;;;6268892;22;37833;-77
2024/02/29 07:05:26;;;;;;;37.30;26.87;;;8.50;99.90;;;;;;6267877;22;37593;-76
2024/02/29 07:07:54;;;;;;;42.17;28.40;;;8.50;99.90;;;;;;6268887;22;39060;-76
2024/02/29 07:10:21;;;;;;;44.33;28.67;;;8.50;99.90;;;;;;6270323;22;37829;-76
2024/02/29 07:12:47;;;;;;;40.53;30.10;;;8.50;99.90;;;;;;6271762;22;38751;-75
2024/02/29 07:15:14;;;;;;;38.13;27.63;;;8.50;99.90;;;;;;6270469;22;39161;-76
2024/02/29 07:17:41;;;;;;;43.57;29.17;;;8.60;99.90;;;;;;6269516;22;38778;-76
2024/02/29 07:20:10;;;;;;;38.33;26.10;;;8.60;99.90;;;;;;6272305;22;37575;-76
2024/02/29 07:22:37;;;;;;;36.97;24.83;;;8.60;99.90;;;;;;6273709;22;40984;-75
2024/02/29 07:25:04;;;;;;;41.00;26.67;;;8.60;99.90;;;;;;6276328;22;38409;-76
2024/02/29 07:27:30;;;;;;;36.83;26.23;;;8.60;99.90;;;;;;6273755;22;48632;-77
2024/02/29 07:29:56;;;;;;;33.87;25.87;;;8.60;99.90;;;;;;6274060;22;38868;-76
2024/02/29 07:32:22;;;;;;;37.67;26.20;;;8.60;99.90;;;;;;6273782;22;40102;-76
2024/02/29 07:34:48;;;;;;;38.37;25.67;;;8.60;99.90;;;;;;6272301;22;38592;-76
2024/02/29 07:37:14;;;;;;;34.53;24.43;;;8.60;99.90;;;;;;6273839;22;39752;-76
2024/02/29 07:39:41;;;;;;;35.87;24.07;;;8.60;99.90;;;;;;6274658;22;37966;-76
2024/02/29 07:42:07;;;;;;;36.77;23.17;;;8.60;99.90;;;;;;6275699;22;39785;-76
2024/02/29 07:44:34;;;;;;;34.47;23.70;;;8.60;99.90;;;;;;6274488;22;40067;-76
2024/02/29 07:47:00;;;;;;;32.60;21.23;;;8.70;99.90;;;;;;6272262;22;38404;-76
2024/02/29 07:49:26;;;;;;;32.37;20.97;;;8.70;99.90;;;;;;6271785;22;38443;-77
2024/02/29 07:51:54;;;;;;;28.87;21.20;;;8.70;99.90;;;;;;6270897;22;40473;-78
2024/02/29 07:54:20;;;;;;;30.13;21.50;;;8.70;99.90;;;;;;6269586;22;39722;-77
2024/02/29 07:56:46;;;;;;;25.40;20.00;;;8.70;99.90;;;;;;6272951;22;38152;-76
2024/02/29 07:59:12;;;;;;;29.03;20.70;;;8.70;99.90;;;;;;6266869;22;37815;-77
2024/02/29 08:01:39;;;;;;;25.97;19.90;;;8.70;99.90;;;;;;6271310;22;39370;-77
2024/02/29 08:04:05;;;;;;;27.27;19.80;;;8.80;99.90;;;;;;6268101;22;38920;-77
2024/02/29 08:06:31;;;;;;;27.10;19.03;;;8.80;99.90;;;;;;6269424;22;39330;-77
2024/02/29 08:08:57;;;;;;;24.57;18.27;;;8.80;99.90;;;;;;6269397;22;37291;-76
2024/02/29 08:11:25;;;;;;;28.03;18.93;;;8.80;99.90;;;;;;6270747;22;38659;-77
2024/02/29 08:13:53;;;;;;;22.03;18.60;;;8.80;99.90;;;;;;6268707;22;38923;-77
2024/02/29 08:16:19;;;;;;;25.33;18.43;;;8.80;99.90;;;;;;6273862;22;37886;-77
2024/02/29 08:18:45;;;;;;;23.30;18.00;;;8.80;99.90;;;;;;6274029;22;38002;-76
2024/02/29 08:21:11;;;;;;;23.23;16.60;;;8.80;99.90;;;;;;6271500;22;39005;-78
2024/02/29 08:23:37;;;;;;;25.10;16.03;;;8.80;99.90;;;;;;6272681;22;38875;-77
2024/02/29 08:26:08;;;;;;;25.00;17.07;;;8.80;99.90;;;;;;6274113;22;38844;-77
2024/02/29 08:28:35;;;;;;;22.80;17.50;;;8.80;99.90;;;;;;6271204;22;46783;-78
2024/02/29 08:31:01;;;;;;;21.53;16.30;;;8.80;99.90;;;;;;6273244;22;38540;-78
2024/02/29 08:33:27;;;;;;;22.70;15.17;;;8.80;99.90;;;;;;6272812;22;49502;-77
2024/02/29 08:35:53;;;;;;;21.53;16.10;;;8.80;99.90;;;;;;6273383;22;38219;-77
2024/02/29 08:38:20;;;;;;;23.27;16.53;;;8.90;99.90;;;;;;6271117;22;36607;-77
2024/02/29 08:40:46;;;;;;;18.53;15.73;;;8.90;99.90;;;;;;6276560;22;39842;-77
2024/02/29 08:43:12;;;;;;;20.23;14.53;;;8.90;99.90;;;;;;6276686;22;39200;-76
2024/02/29 08:45:38;;;;;;;20.30;14.77;;;8.90;99.90;;;;;;6274344;22;38914;-75
2024/02/29 08:48:05;;;;;;;17.10;14.60;;;8.90;99.90;;;;;;6274323;22;38230;-76
2024/02/29 08:50:31;;;;;;;17.80;14.70;;;9.00;99.90;;;;;;6276295;22;37501;-76
2024/02/29 08:52:57;;;;;;;19.23;14.37;;;9.00;99.90;;;;;;6276646;22;39437;-76
2024/02/29 08:55:23;;;;;;;21.37;13.97;;;9.00;99.90;;;;;;6274123;22;38365;-77
2024/02/29 08:57:49;;;;;;;16.70;13.67;;;9.00;99.90;;;;;;6275696;22;36926;-76
2024/02/29 09:00:16;;;;;;;17.80;13.03;;;9.00;99.90;;;;;;6275039;22;38756;-76
2024/02/29 09:02:44;;;;;;;15.70;13.20;;;9.00;99.90;;;;;;6271674;22;38806;-77
2024/02/29 09:05:10;;;;;;;17.50;14.07;;;9.00;99.90;;;;;;6275539;22;39448;-76
2024/02/29 09:07:36;;;;;;;15.50;13.53;;;9.00;99.90;;;;;;6274051;22;38706;-76
2024/02/29 09:10:02;;;;;;;18.70;13.00;;;9.00;99.90;;;;;;6272096;22;39277;-76
2024/02/29 09:12:28;;;;;;;18.90;13.93;;;9.10;99.90;;;;;;6273982;22;40062;-76
2024/02/29 09:14:54;;;;;;;19.97;13.40;;;9.10;99.90;;;;;;6274821;22;37949;-75
2024/02/29 09:17:20;;;;;;;16.07;12.63;;;9.10;99.90;;;;;;6271941;22;38401;-76
2024/02/29 09:19:46;;;;;;;20.13;13.90;;;9.10;99.90;;;;;;6276485;22;39919;-76
2024/02/29 09:22:13;;;;;;;15.20;12.30;;;9.10;99.90;;;;;;6273980;22;37954;-77
2024/02/29 09:24:39;;;;;;;19.30;13.37;;;9.10;99.90;;;;;;6276085;22;39047;-78
2024/02/29 09:27:05;;;;;;;20.23;13.47;;;9.10;99.90;;;;;;6275703;22;38562;-77
2024/02/29 09:29:32;;;;;;;17.53;13.07;;;9.10;99.90;;;;;;6272550;22;39173;-77
2024/02/29 09:31:58;;;;;;;18.87;12.73;;;9.00;99.90;;;;;;6273893;22;38544;-76
2024/02/29 09:34:24;;;;;;;16.90;12.80;;;9.00;99.90;;;;;;6275253;22;38038;-76
2024/02/29 09:36:50;;;;;;;16.93;12.23;;;9.00;99.90;;;;;;6277016;22;38064;-78
2024/02/29 09:39:16;;;;;;;18.87;12.43;;;9.00;99.90;;;;;;6274175;22;39070;-77
2024/02/29 09:41:43;;;;;;;16.20;11.93;;;9.00;99.90;;;;;;6276570;22;38263;-77
2024/02/29 09:44:09;;;;;;;15.10;11.77;;;9.00;99.90;;;;;;6273457;22;40166;-76
2024/02/29 09:46:37;;;;;;;17.80;12.97;;;9.10;99.90;;;;;;6276110;22;38338;-77
2024/02/29 09:49:04;;;;;;;18.40;12.67;;;9.10;99.90;;;;;;6274199;22;40610;-77
2024/02/29 09:51:31;;;;;;;15.53;11.50;;;9.10;99.90;;;;;;6273464;22;38677;-77
2024/02/29 09:53:58;;;;;;;17.60;11.73;;;9.10;99.90;;;;;;6270569;22;38932;-77
2024/02/29 09:56:27;;;;;;;14.33;11.43;;;9.10;99.90;;;;;;6272018;22;36348;-76
2024/02/29 09:58:55;;;;;;;16.03;11.43;;;9.20;99.90;;;;;;6271938;22;39640;-77
2024/02/29 10:01:22;;;;;;;14.80;10.93;;;9.20;99.90;;;;;;6273122;22;39004;-76
2024/02/29 10:03:48;;;;;;;12.40;10.43;;;9.20;99.90;;;;;;6269799;22;38925;-75
2024/02/29 10:06:14;;;;;;;14.77;10.03;;;9.20;99.90;;;;;;6271013;22;38746;-76
2024/02/29 10:08:41;;;;;;;12.57;10.90;;;9.20;99.90;;;;;;6269422;22;39676;-76
2024/02/29 10:11:07;;;;;;;14.20;11.17;;;9.20;99.90;;;;;;6275603;22;38311;-77
2024/02/29 10:13:40;;;;;;;14.83;10.73;;;9.10;99.90;;;;;;6277137;22;38392;-77
2024/02/29 10:16:08;;;;;;;12.53;9.97;;;9.10;99.90;;;;;;6274597;22;37185;-76
2024/02/29 10:18:36;;;;;;;12.97;10.63;;;9.10;99.90;;;;;;6272748;22;39148;-76
2024/02/29 10:21:14;;;;;;;15.37;11.37;;;9.10;99.90;;;;;;6273355;22;39136;-76
2024/02/29 10:23:41;;;;;;;15.23;12.50;;;9.20;99.90;;;;;;6273585;22;48340;-76
2024/02/29 10:26:08;;;;;;;13.37;11.67;;;9.20;99.90;;;;;;6276209;22;37368;-76
2024/02/29 10:28:35;;;;;;;15.47;11.57;;;9.20;99.90;;;;;;6275637;22;38543;-76
2024/02/29 10:31:01;;;;;;;19.10;12.60;;;9.20;99.90;;;;;;6274773;22;38409;-76
2024/02/29 10:33:28;;;;;;;19.17;12.90;;;9.20;99.90;;;;;;6273197;22;38095;-76
2024/02/29 10:35:54;;;;;;;16.90;13.17;;;9.20;99.90;;;;;;6274221;22;39207;-76
2024/02/29 10:38:21;;;;;;;17.40;13.97;;;9.20;99.90;;;;;;6275895;22;39643;-75
2024/02/29 10:40:59;;;;;;;17.33;14.53;;;9.20;99.90;;;;;;6276195;22;38451;-76
2024/02/29 10:43:30;;;;;;;17.03;14.33;;;9.20;99.90;;;;;;6272652;22;38410;-76
2024/02/29 10:45:59;;;;;;;22.63;15.57;;;9.20;99.90;;;;;;6274580;22;37405;-76
2024/02/29 10:48:49;;;;;;;19.07;15.33;;;9.20;99.90;;;;;;6274340;22;38746;-77
2024/02/29 10:51:38;;;;;;;17.13;14.47;;;9.30;99.90;;;;;;6270850;22;39736;-76
2024/02/29 10:54:20;;;;;;;20.67;15.53;;;9.30;99.90;;;;;;6273604;22;39092;-75
2024/02/29 10:56:48;;;;;;;23.35;16.00;;;9.20;99.90;;;;;;6271134;22;36329;-77
2024/02/29 10:59:19;;;;;;;21.97;15.20;;;9.30;99.90;;;;;;6271600;22;38730;-76
2024/02/29 11:01:47;;;;;;;17.90;14.87;;;9.20;99.90;;;;;;6274305;22;38231;-76
2024/02/29 11:04:16;;;;;;;17.70;14.17;;;9.30;99.90;;;;;;6274872;22;38527;-77
2024/02/29 11:06:46;;;;;;;22.57;15.97;;;9.30;99.90;;;;;;6272811;22;39385;-75
2024/02/29 11:09:19;;;;;;;22.63;15.27;;;9.30;99.90;;;;;;6272162;22;37757;-76
2024/02/29 11:11:47;;;;;;;20.77;15.50;;;9.30;99.90;;;;;;6271823;22;38880;-77
2024/02/29 11:14:17;;;;;;;19.23;15.50;;;9.30;99.90;;;;;;6271371;22;37359;-76
2024/02/29 11:16:45;;;;;;;17.77;15.27;;;9.30;99.90;;;;;;6272366;22;38559;-76
2024/02/29 11:19:18;;;;;;;22.13;16.77;;;9.30;99.90;;;;;;6274593;22;38781;-75
2024/02/29 11:21:48;;;;;;;22.87;16.20;;;9.30;99.90;;;;;;6273244;22;38808;-76
2024/02/29 11:24:20;;;;;;;18.30;15.83;;;9.30;99.90;;;;;;6273164;22;39229;-76
2024/02/29 11:26:53;;;;;;;21.60;17.25;;;9.30;99.90;;;;;;6274122;22;38677;-77
2024/02/29 11:29:22;;;;;;;22.33;17.30;;;9.30;99.90;;;;;;6274097;22;37510;-77
2024/02/29 11:31:54;;;;;;;25.77;16.83;;;9.30;99.90;;;;;;6272583;22;39088;-76
2024/02/29 11:34:21;;;;;;;;;;;9.30;99.90;;;;;;6276946;22;38079;-76
2024/02/29 11:36:51;;;;;;;20.73;17.30;;;9.30;99.90;;;;;;6277562;22;37948;-76
2024/02/29 11:39:21;;;;;;;22.50;18.17;;;9.30;99.90;;;;;;6274073;22;40745;-76
2024/02/29 11:41:49;;;;;;;28.57;19.57;;;9.30;99.90;;;;;;6270768;22;40118;-73
2024/02/29 11:44:18;;;;;;;23.27;18.73;;;9.30;99.90;;;;;;6277953;22;38294;-77
2024/02/29 11:46:49;;;;;;;22.70;17.23;;;9.30;99.90;;;;;;6272696;22;36587;-76
2024/02/29 11:49:16;;;;;;;21.80;16.80;;;9.30;99.90;;;;;;6275086;22;38760;-76
2024/02/29 11:51:43;;;;;;;22.73;16.97;;;9.30;99.90;;;;;;6273927;22;38968;-76
2024/02/29 11:54:14;;;;;;;22.30;18.17;;;9.30;99.90;;;;;;6272222;22;38636;-75
2024/02/29 11:56:40;;;;;;;23.57;17.33;;;9.30;99.90;;;;;;6275992;22;37578;-76
2024/02/29 11:59:09;;;;;;;20.43;17.47;;;9.30;99.90;;;;;;6276694;22;38821;-76
2024/02/29 12:01:36;;;;;;;26.40;19.67;;;9.30;99.90;;;;;;6276812;22;40126;-75
2024/02/29 12:04:02;;;;;;;23.23;19.07;;;9.30;99.90;;;;;;6273661;22;39057;-76
2024/02/29 12:06:29;;;;;;;24.17;20.10;;;9.30;99.90;;;;;;6272816;22;37123;-76
2024/02/29 12:08:59;;;;;;;24.60;18.70;;;9.30;99.90;;;;;;6275717;22;38797;-76
2024/02/29 12:11:25;;;;;;;21.77;19.00;;;9.30;99.90;;;;;;6272390;22;39221;-78
2024/02/29 12:13:51;;;;;;;22.13;18.57;;;9.30;99.90;;;;;;6273316;22;37266;-76
2024/02/29 12:16:18;;;;;;;23.83;19.00;;;9.30;99.90;;;;;;6275314;22;38343;-76
2024/02/29 12:18:45;;;;;;;22.37;17.93;;;9.40;99.90;;;;;;6276278;22;39908;-73
2024/02/29 12:21:11;;;;;;;21.03;17.70;;;9.40;99.90;;;;;;6271989;22;37564;-73
2024/02/29 12:23:39;;;;;;;22.73;18.53;;;9.40;99.90;;;;;;6274566;22;39203;-73
2024/02/29 12:26:10;;;;;;;21.33;18.30;;;9.40;99.90;;;;;;6274737;22;38105;-74
2024/02/29 12:28:38;;;;;;;21.87;18.73;;;9.40;99.90;;;;;;6273692;22;39635;-73
2024/02/29 12:31:06;;;;;;;22.47;18.93;;;9.50;99.90;;;;;;6270643;22;39063;-73
2024/02/29 12:33:39;;;;;;;22.27;19.67;;;9.50;99.90;;;;;;6272969;22;39720;-73
2024/02/29 12:36:06;;;;;;;24.13;20.70;;;9.50;99.90;;;;;;6270722;22;38385;-73